Rhuddlan, United Kingdom
Current Conditions -  °F | °C
As of 6:20 AM on Wednesday 26 Nov 2014 (Local Time) from EGNR Reporting Station
Light Rain Light Rain  
Wind Chill: 40°   Ceiling: 2300
Heat Index: 43°   Visibility: 2.5mi
Dew Point: 43°   Wind: 5mph
Humidity: 100%   Direction: 320°NW
Pressure: 29.97"   Gusts: NA
Location:  53.28°N, 3.47°W
Report Text: EGNR 260620Z 32004KT 4000 -RA BR SCT016 BKN023 06/06 Q1015
Loading
Personal Weather Stations






























Interactive Weather Map New forecast layout! Learn more

10-Day Weather Forecast

Advertisements
Track Severe Weather on mobile